Crossroads Center, Iowa
Current Conditions -  °F | °C
As of 9:55 PM on Saturday 20 Dec 2014 (Local Time) from KFOD Reporting Station
Overcast Overcast  
Wind Chill: 26°   Ceiling: 800
Heat Index: 34°   Visibility: 8mi
Dew Point: 28°   Wind: 9mph
Humidity: 81%   Direction: 170°S
Pressure: 30.07"   Gusts: 16mph
Location:  42.5075°N, 94.2531°W
Report Text: KFOD 210355Z AUTO 17008G14KT 8SM OVC008 01/M02 A3007 RMK AO1
Loading
Personal Weather Stations






























Interactive Weather Map New forecast layout! Learn more

10-Day Weather Forecast

Advertisements
Track Severe Weather on mobile